Time;durP1;ratioP1;P1;durP2;ratioP2;P2;SDS_P1;SDS_P2;PMS_P1;PMS_P2;Temp;Humidity;BMP_temperature;BMP_pressure;BME280_temperature;BME280_humidity;BME280_pressure;Samples;Min_cycle;Max_cycle;Signal;HPM_P1;HPM_P2
2022/03/16 00:02:56;;;;;;;23.42;12.57;;;;;;;;;;6334665;22;20251;-90
2022/03/16 00:06:02;;;;;;;23.57;12.77;;;;;;;;;;6335000;22;20172;-90
2022/03/16 00:09:07;;;;;;;19.97;11.80;;;;;;;;;;6333526;22;20689;-90
2022/03/16 00:12:12;;;;;;;23.67;11.90;;;;;;;;;;6336817;22;20172;-90
2022/03/16 00:15:17;;;;;;;21.93;12.20;;;;;;;;;;6336658;22;20526;-90
2022/03/16 00:18:23;;;;;;;22.27;13.20;;;;;;;;;;6337641;22;20219;-90
2022/03/16 00:21:29;;;;;;;20.93;12.23;;;;;;;;;;6337772;22;20168;-89
2022/03/16 00:24:35;;;;;;;23.30;12.77;;;;;;;;;;6337080;22;20515;-88
2022/03/16 00:27:40;;;;;;;24.40;14.23;;;;;;;;;;6337074;22;20164;-88
2022/03/16 00:30:45;;;;;;;27.60;13.73;;;;;;;;;;6337299;22;20172;-91
2022/03/16 00:33:50;;;;;;;26.07;14.23;;;;;;;;;;6335814;22;20180;-89
2022/03/16 00:36:57;;;;;;;26.47;14.00;;;;;;;;;;6335851;22;20151;-89
2022/03/16 00:40:02;;;;;;;26.57;15.20;;;;;;;;;;6335055;22;20160;-89
2022/03/16 00:43:08;;;;;;;24.02;13.43;;;;;;;;;;6336620;22;20196;-90
2022/03/16 00:46:13;;;;;;;23.80;14.17;;;;;;;;;;6335612;22;20222;-90
2022/03/16 00:49:18;;;;;;;24.87;13.60;;;;;;;;;;6336411;22;20169;-90
2022/03/16 00:52:25;;;;;;;25.17;14.17;;;;;;;;;;6336499;22;20628;-90
2022/03/16 00:55:30;;;;;;;22.63;13.13;;;;;;;;;;6336199;22;20172;-89
2022/03/16 00:58:36;;;;;;;21.93;12.43;;;;;;;;;;6337123;22;20170;-89
2022/03/16 01:01:41;;;;;;;26.97;13.93;;;;;;;;;;6337428;22;20155;-90
2022/03/16 01:04:46;;;;;;;26.30;14.67;;;;;;;;;;6337507;22;20242;-89
2022/03/16 01:07:52;;;;;;;26.40;13.90;;;;;;;;;;6337279;22;20199;-90
2022/03/16 01:10:58;;;;;;;24.73;14.00;;;;;;;;;;6336958;22;20207;-89
2022/03/16 01:14:04;;;;;;;24.83;14.03;;;;;;;;;;6335451;22;20215;-90
2022/03/16 01:17:09;;;;;;;26.10;14.57;;;;;;;;;;6337510;22;20174;-91
2022/03/16 01:20:14;;;;;;;26.03;13.80;;;;;;;;;;6335906;22;20170;-91
2022/03/16 01:23:21;;;;;;;26.53;13.37;;;;;;;;;;6337008;22;20223;-89
2022/03/16 01:26:26;;;;;;;24.63;13.63;;;;;;;;;;6336027;22;20161;-90
2022/03/16 01:29:32;;;;;;;22.30;13.20;;;;;;;;;;6336313;22;20194;-88
2022/03/16 01:32:37;;;;;;;23.90;13.13;;;;;;;;;;6337011;22;20169;-88
2022/03/16 01:35:42;;;;;;;20.43;12.03;;;;;;;;;;6336501;22;20179;-90
2022/03/16 01:38:51;;;;;;;26.40;14.70;;;;;;;;;;6336774;22;20168;-91
2022/03/16 01:41:56;;;;;;;27.80;14.20;;;;;;;;;;6335627;22;20176;-88
2022/03/16 01:45:03;;;;;;;22.40;12.27;;;;;;;;;;6336435;22;20195;-89
2022/03/16 01:48:09;;;;;;;22.33;12.73;;;;;;;;;;6336619;22;20231;-90
2022/03/16 01:51:15;;;;;;;25.97;13.03;;;;;;;;;;6337512;22;20536;-90
2022/03/16 01:54:22;;;;;;;24.77;12.33;;;;;;;;;;6337448;22;20222;-90
2022/03/16 01:57:27;;;;;;;26.97;12.33;;;;;;;;;;6336630;22;20156;-91
2022/03/16 02:00:32;;;;;;;24.63;12.63;;;;;;;;;;6337093;22;20194;-89
2022/03/16 02:03:37;;;;;;;21.50;12.13;;;;;;;;;;6336209;22;20532;-89
2022/03/16 02:06:42;;;;;;;21.53;12.07;;;;;;;;;;6335467;22;20169;-89
2022/03/16 02:09:53;;;;;;;21.33;11.40;;;;;;;;;;6335912;22;20163;-90
2022/03/16 02:12:59;;;;;;;22.43;11.70;;;;;;;;;;6336733;22;20513;-90
2022/03/16 02:16:04;;;;;;;24.37;11.63;;;;;;;;;;6335246;22;20152;-91
2022/03/16 02:19:09;;;;;;;23.03;11.30;;;;;;;;;;6334369;22;20183;-89
2022/03/16 02:22:15;;;;;;;22.90;12.37;;;;;;;;;;6334510;22;20169;-89
2022/03/16 02:25:22;;;;;;;19.43;10.73;;;;;;;;;;6336154;22;20169;-89
2022/03/16 02:28:27;;;;;;;24.03;12.47;;;;;;;;;;6336848;22;20182;-89
2022/03/16 02:31:32;;;;;;;22.37;12.00;;;;;;;;;;6334869;22;20173;-90
2022/03/16 02:34:37;;;;;;;24.40;11.63;;;;;;;;;;6333738;22;20171;-90
2022/03/16 02:37:43;;;;;;;24.03;12.20;;;;;;;;;;6333914;22;20232;-90
2022/03/16 02:40:50;;;;;;;22.77;11.20;;;;;;;;;;6335032;22;20179;-90
2022/03/16 02:43:55;;;;;;;24.20;12.60;;;;;;;;;;6335820;22;20211;-91
2022/03/16 02:47:01;;;;;;;24.00;12.17;;;;;;;;;;6333906;22;20667;-91
2022/03/16 02:50:07;;;;;;;24.77;12.73;;;;;;;;;;6334165;22;20167;-90
2022/03/16 02:53:12;;;;;;;26.30;12.93;;;;;;;;;;6335801;22;20169;-91
2022/03/16 02:56:19;;;;;;;26.77;13.17;;;;;;;;;;6334826;22;20173;-89
2022/03/16 02:59:24;;;;;;;29.73;13.17;;;;;;;;;;6334167;22;20260;-89
2022/03/16 03:02:29;;;;;;;28.50;13.83;;;;;;;;;;6333479;22;20200;-90
2022/03/16 03:05:35;;;;;;;27.13;13.30;;;;;;;;;;6333834;22;20156;-91
2022/03/16 03:09:10;;;;;;;26.63;13.30;;;;;;;;;;6333798;22;20240;-90
2022/03/16 03:12:17;;;;;;;30.77;14.50;;;;;;;;;;6334662;22;20168;-89
2022/03/16 03:15:22;;;;;;;28.10;14.53;;;;;;;;;;6334328;22;20500;-90
2022/03/16 03:18:27;;;;;;;28.77;14.83;;;;;;;;;;6335703;22;20180;-90
2022/03/16 03:21:33;;;;;;;28.67;13.50;;;;;;;;;;6334436;22;20168;-91
2022/03/16 03:24:39;;;;;;;35.80;15.23;;;;;;;;;;6334623;22;20187;-89
2022/03/16 03:27:45;;;;;;;31.83;15.40;;;;;;;;;;6334018;22;20164;-90
2022/03/16 03:30:51;;;;;;;29.73;15.57;;;;;;;;;;6334423;22;20168;-92
2022/03/16 03:33:56;;;;;;;33.73;15.73;;;;;;;;;;6333468;22;20186;-89
2022/03/16 03:37:01;;;;;;;33.73;15.00;;;;;;;;;;6332612;22;20173;-90
2022/03/16 03:40:08;;;;;;;32.80;16.33;;;;;;;;;;6333534;22;20156;-89
2022/03/16 03:43:14;;;;;;;35.20;17.30;;;;;;;;;;6334633;22;20156;-91
2022/03/16 03:46:19;;;;;;;34.83;15.90;;;;;;;;;;6335725;22;20168;-89
2022/03/16 03:49:24;;;;;;;37.33;17.30;;;;;;;;;;6336544;22;20234;-90
2022/03/16 03:52:28;;;;;;;36.07;16.53;;;;;;;;;;6335098;22;20255;-91
2022/03/16 03:55:34;;;;;;;39.13;17.40;;;;;;;;;;6335006;22;20207;-91
2022/03/16 03:58:40;;;;;;;36.63;16.87;;;;;;;;;;6335583;22;20168;-91
2022/03/16 04:01:46;;;;;;;34.87;17.27;;;;;;;;;;6333910;22;20168;-91
2022/03/16 04:04:51;;;;;;;34.30;16.33;;;;;;;;;;6333426;22;20214;-91
2022/03/16 04:07:56;;;;;;;41.57;17.63;;;;;;;;;;6335462;22;20201;-90
2022/03/16 04:11:01;;;;;;;40.57;17.57;;;;;;;;;;6335033;22;20176;-89
2022/03/16 04:14:08;;;;;;;35.10;16.87;;;;;;;;;;6336351;22;20169;-91
2022/03/16 04:17:39;;;;;;;37.33;17.17;;;;;;;;;;6333492;22;20214;-91
2022/03/16 04:20:45;;;;;;;39.00;17.30;;;;;;;;;;6335367;22;20206;-91
2022/03/16 04:23:50;;;;;;;37.10;18.10;;;;;;;;;;6333883;22;20192;-91
2022/03/16 04:26:55;;;;;;;38.57;17.07;;;;;;;;;;6336487;22;20191;-91
2022/03/16 04:30:02;;;;;;;39.97;18.37;;;;;;;;;;6335786;22;20168;-92
2022/03/16 04:33:07;;;;;;;35.90;17.60;;;;;;;;;;6335414;22;20187;-91
2022/03/16 04:36:12;;;;;;;35.87;16.97;;;;;;;;;;6351902;22;20172;-90
2022/03/16 04:39:18;;;;;;;36.83;17.53;;;;;;;;;;6334040;22;20187;-90
2022/03/16 04:42:22;;;;;;;38.10;18.70;;;;;;;;;;6333794;22;20164;-91
2022/03/16 04:45:29;;;;;;;39.87;18.17;;;;;;;;;;6335095;22;20269;-90
2022/03/16 04:48:34;;;;;;;36.20;17.63;;;;;;;;;;6334907;22;20161;-91
2022/03/16 04:51:40;;;;;;;34.93;16.97;;;;;;;;;;6334707;22;20168;-90
2022/03/16 04:54:45;;;;;;;41.03;18.63;;;;;;;;;;6333539;22;20157;-90
2022/03/16 04:57:50;;;;;;;35.80;16.80;;;;;;;;;;6334356;22;20171;-90
2022/03/16 05:00:56;;;;;;;35.93;17.20;;;;;;;;;;6335436;22;20168;-91
2022/03/16 05:04:01;;;;;;;35.77;17.23;;;;;;;;;;6335564;22;20208;-91
2022/03/16 05:07:07;;;;;;;36.53;17.63;;;;;;;;;;6335776;22;20218;-91
2022/03/16 05:10:12;;;;;;;38.77;17.70;;;;;;;;;;6334871;22;20215;-91
2022/03/16 05:13:17;;;;;;;37.13;17.33;;;;;;;;;;6334146;22;20190;-90
2022/03/16 05:17:02;;;;;;;36.20;17.43;;;;;;;;;;6335764;22;20176;-89
2022/03/16 05:20:09;;;;;;;32.40;16.07;;;;;;;;;;6337591;22;20149;-90
2022/03/16 05:23:14;;;;;;;38.87;17.80;;;;;;;;;;6338265;22;20251;-91
2022/03/16 05:26:19;;;;;;;35.30;16.83;;;;;;;;;;6335731;22;20232;-90
2022/03/16 05:29:25;;;;;;;36.57;17.33;;;;;;;;;;6336642;22;20213;-88
2022/03/16 05:32:32;;;;;;;32.10;16.47;;;;;;;;;;6335164;22;20283;-90
2022/03/16 05:35:39;;;;;;;31.63;16.57;;;;;;;;;;6335982;22;20172;-90
2022/03/16 05:38:44;;;;;;;34.63;16.10;;;;;;;;;;6336864;22;20165;-91
2022/03/16 05:41:49;;;;;;;34.57;16.73;;;;;;;;;;6334125;22;20780;-89
2022/03/16 05:44:55;;;;;;;35.73;16.77;;;;;;;;;;6335581;22;20188;-91
2022/03/16 05:48:00;;;;;;;32.10;15.57;;;;;;;;;;6335303;22;20172;-90
2022/03/16 05:51:06;;;;;;;33.30;16.30;;;;;;;;;;6334617;22;20160;-90
2022/03/16 05:54:11;;;;;;;36.63;17.63;;;;;;;;;;6335202;22;20207;-90
2022/03/16 05:57:17;;;;;;;38.03;16.80;;;;;;;;;;6335612;22;20219;-89
2022/03/16 06:00:22;;;;;;;31.83;15.90;;;;;;;;;;6334241;22;20169;-91
2022/03/16 06:03:28;;;;;;;28.93;14.50;;;;;;;;;;6333569;22;20245;-91
2022/03/16 06:06:34;;;;;;;28.10;14.47;;;;;;;;;;6336692;22;20191;-90
2022/03/16 06:09:40;;;;;;;28.00;14.60;;;;;;;;;;6334591;22;20206;-89
2022/03/16 06:12:55;;;;;;;27.63;14.30;;;;;;;;;;6336645;22;20171;-90
2022/03/16 06:16:01;;;;;;;53.13;24.07;;;;;;;;;;6336725;22;20171;-90
2022/03/16 06:19:11;;;;;;;33.37;16.57;;;;;;;;;;6337396;22;20164;-90
2022/03/16 06:22:18;;;;;;;27.53;13.90;;;;;;;;;;6335534;22;20168;-90
2022/03/16 06:25:24;;;;;;;27.50;13.87;;;;;;;;;;6336410;22;20338;-90
2022/03/16 06:28:29;;;;;;;31.20;13.37;;;;;;;;;;6334640;22;20187;-90
2022/03/16 06:31:35;;;;;;;30.67;13.10;;;;;;;;;;6335897;22;20580;-88
2022/03/16 06:34:41;;;;;;;23.23;12.83;;;;;;;;;;6336063;22;20260;-88
2022/03/16 06:37:49;;;;;;;27.33;13.13;;;;;;;;;;6339009;22;20193;-90
2022/03/16 06:40:55;;;;;;;23.17;12.43;;;;;;;;;;6339841;22;20215;-88
2022/03/16 06:47:19;;;;;;;25.70;12.80;;;;;;;;;;6340014;22;20171;-88
2022/03/16 06:50:26;;;;;;;23.67;11.93;;;;;;;;;;6338296;22;20177;-90
2022/03/16 06:57:00;;;;;;;25.27;11.20;;;;;;;;;;6355179;22;20164;-90
2022/03/16 07:00:07;;;;;;;20.73;11.47;;;;;;;;;;6334667;22;20211;-89
2022/03/16 07:03:13;;;;;;;21.40;11.53;;;;;;;;;;6336965;22;20191;-90
2022/03/16 07:06:19;;;;;;;26.50;12.33;;;;;;;;;;6340110;22;20240;-90
2022/03/16 07:09:26;;;;;;;24.73;12.03;;;;;;;;;;6337133;22;20210;-91
2022/03/16 07:12:33;;;;;;;21.50;11.13;;;;;;;;;;6336959;22;20239;-89
2022/03/16 07:15:39;;;;;;;21.70;11.43;;;;;;;;;;6333637;22;20164;-88
2022/03/16 07:18:44;;;;;;;26.07;11.73;;;;;;;;;;6334654;22;20163;-90
2022/03/16 07:21:50;;;;;;;26.10;12.63;;;;;;;;;;6354129;22;20165;-92
2022/03/16 07:24:59;;;;;;;23.23;11.83;;;;;;;;;;6335870;22;20191;-90
2022/03/16 07:28:04;;;;;;;22.73;11.40;;;;;;;;;;6336346;22;20165;-90
2022/03/16 07:31:10;;;;;;;23.87;12.27;;;;;;;;;;6336471;22;20238;-90
2022/03/16 07:34:15;;;;;;;25.70;12.75;;;;;;;;;;6336249;22;20168;-90
2022/03/16 07:37:23;;;;;;;20.95;11.02;;;;;;;;;;6336681;22;20187;-90
2022/03/16 07:40:33;;;;;;;24.50;11.98;;;;;;;;;;6335195;22;20168;-90
2022/03/16 07:43:38;;;;;;;23.38;11.65;;;;;;;;;;6339053;22;20172;-92
2022/03/16 07:46:43;;;;;;;21.48;10.75;;;;;;;;;;6332207;22;20491;-91
2022/03/16 07:49:48;;;;;;;24.10;11.43;;;;;;;;;;6335302;22;20218;-91
2022/03/16 07:52:53;;;;;;;23.08;13.38;;;;;;;;;;6333783;22;20152;-91
2022/03/16 07:56:00;;;;;;;21.38;10.75;;;;;;;;;;6337382;22;20168;-92
2022/03/16 07:59:05;;;;;;;21.67;11.57;;;;;;;;;;6336706;22;20172;-92
2022/03/16 08:02:21;;;;;;;24.80;12.70;;;;;;;;;;6337382;22;20160;-91
2022/03/16 08:05:26;;;;;;;19.25;11.43;;;;;;;;;;6334398;22;20637;-89
2022/03/16 08:08:31;;;;;;;20.95;12.15;;;;;;;;;;6334060;22;20508;-90
2022/03/16 08:11:48;;;;;;;23.75;12.10;;;;;;;;;;6335037;22;20180;-90
2022/03/16 08:14:54;;;;;;;24.05;11.68;;;;;;;;;;6336234;22;20161;-91
2022/03/16 08:17:59;;;;;;;19.92;11.38;;;;;;;;;;6333813;22;20183;-91
2022/03/16 08:21:05;;;;;;;20.75;11.25;;;;;;;;;;6335227;22;20238;-90
2022/03/16 08:24:10;;;;;;;40.03;12.95;;;;;;;;;;6334818;22;20168;-91
2022/03/16 08:27:20;;;;;;;39.25;13.00;;;;;;;;;;6335759;22;20187;-89
2022/03/16 08:30:25;;;;;;;29.15;12.82;;;;;;;;;;6338417;22;20152;-91
2022/03/16 08:33:30;;;;;;;25.33;13.02;;;;;;;;;;6341793;22;20214;-90
2022/03/16 08:36:38;;;;;;;27.15;12.35;;;;;;;;;;6341611;22;20160;-90
2022/03/16 08:39:44;;;;;;;22.25;11.73;;;;;;;;;;6343688;22;20215;-90
2022/03/16 08:42:52;;;;;;;25.40;12.32;;;;;;;;;;6341991;22;20176;-90
2022/03/16 08:45:58;;;;;;;23.23;12.50;;;;;;;;;;6342248;22;20327;-91
2022/03/16 08:49:04;;;;;;;25.92;13.18;;;;;;;;;;6336911;22;20159;-90
2022/03/16 08:52:10;;;;;;;26.08;12.45;;;;;;;;;;6335970;22;20159;-90
2022/03/16 08:55:15;;;;;;;23.10;13.05;;;;;;;;;;6336300;22;20167;-91
2022/03/16 08:58:22;;;;;;;20.42;12.57;;;;;;;;;;6336250;22;20164;-93
2022/03/16 09:01:28;;;;;;;25.30;13.32;;;;;;;;;;6336696;22;20168;-92
2022/03/16 09:04:34;;;;;;;27.08;14.00;;;;;;;;;;6336807;22;20545;-91
2022/03/16 09:07:39;;;;;;;26.00;13.82;;;;;;;;;;6337118;22;20161;-90
2022/03/16 09:10:44;;;;;;;123.70;17.75;;;;;;;;;;6337494;22;20525;-91
2022/03/16 09:13:55;;;;;;;24.95;12.98;;;;;;;;;;6337038;22;20171;-88
2022/03/16 09:17:00;;;;;;;23.83;13.35;;;;;;;;;;6336411;22;20240;-91
2022/03/16 09:20:06;;;;;;;26.65;13.68;;;;;;;;;;6334445;22;20176;-90
2022/03/16 09:23:11;;;;;;;30.52;14.50;;;;;;;;;;6337535;22;20204;-92
2022/03/16 09:26:16;;;;;;;29.75;13.75;;;;;;;;;;6334857;22;20188;-90
2022/03/16 09:29:23;;;;;;;25.63;14.25;;;;;;;;;;6336523;22;20231;-91
2022/03/16 09:32:28;;;;;;;24.13;13.57;;;;;;;;;;6335072;22;20249;-90
2022/03/16 09:35:35;;;;;;;30.73;15.07;;;;;;;;;;6335892;22;20168;-90
2022/03/16 09:38:40;;;;;;;23.45;14.18;;;;;;;;;;6335920;22;20168;-91
2022/03/16 09:41:45;;;;;;;28.88;15.00;;;;;;;;;;6335820;22;20514;-91
2022/03/16 09:45:06;;;;;;;27.10;14.95;;;;;;;;;;6334947;22;20168;-90
2022/03/16 09:48:12;;;;;;;25.85;15.13;;;;;;;;;;6336457;22;20177;-91
2022/03/16 09:51:18;;;;;;;25.40;14.25;;;;;;;;;;6335785;22;20164;-89
2022/03/16 09:54:25;;;;;;;28.60;15.43;;;;;;;;;;6334943;22;20149;-91
2022/03/16 09:57:30;;;;;;;39.38;17.40;;;;;;;;;;6333780;22;20211;-91
2022/03/16 10:00:38;;;;;;;28.65;15.20;;;;;;;;;;6334250;22;20168;-93
2022/03/16 10:03:49;;;;;;;29.83;15.65;;;;;;;;;;6337515;22;20196;-90
2022/03/16 10:06:54;;;;;;;26.58;14.85;;;;;;;;;;6334505;22;20192;-90
2022/03/16 10:20:30;;;;;;;31.42;15.63;;;;;;;;;;6336116;22;20165;-90
2022/03/16 10:23:36;;;;;;;28.55;16.15;;;;;;;;;;6336224;22;20161;-90
2022/03/16 10:26:52;;;;;;;29.40;16.02;;;;;;;;;;6336452;22;20195;-91
2022/03/16 10:29:58;;;;;;;24.85;15.00;;;;;;;;;;6336180;22;20164;-92
2022/03/16 10:33:20;;;;;;;25.70;14.77;;;;;;;;;;6338639;22;20172;-92
2022/03/16 10:36:28;;;;;;;28.73;15.73;;;;;;;;;;6338522;22;20247;-93
2022/03/16 10:39:36;;;;;;;25.02;16.15;;;;;;;;;;6337707;22;20270;-90
2022/03/16 10:49:34;;;;;;;28.65;17.30;;;;;;;;;;6336135;22;20183;-90
2022/03/16 10:52:44;;;;;;;25.60;16.55;;;;;;;;;;6335359;22;20164;-89
2022/03/16 10:55:50;;;;;;;28.67;17.67;;;;;;;;;;6334691;22;20520;-90
2022/03/16 10:58:56;;;;;;;32.83;17.33;;;;;;;;;;6335349;22;20164;-90
2022/03/16 11:02:03;;;;;;;39.83;18.90;;;;;;;;;;6336337;22;20232;-90
2022/03/16 11:05:10;;;;;;;32.17;18.25;;;;;;;;;;6337928;22;20169;-91
2022/03/16 11:08:35;;;;;;;28.27;17.92;;;;;;;;;;6335781;22;20165;-91
2022/03/16 11:15:05;;;;;;;29.73;17.17;;;;;;;;;;6333684;22;20574;-91
2022/03/16 11:18:10;;;;;;;26.77;15.07;;;;;;;;;;6336121;22;20155;-91
2022/03/16 11:21:18;;;;;;;38.78;19.42;;;;;;;;;;6339781;22;20222;-91
2022/03/16 11:24:27;;;;;;;36.03;19.83;;;;;;;;;;6335027;22;20611;-90
2022/03/16 11:27:40;;;;;;;37.78;18.92;;;;;;;;;;6338752;22;20646;-89
2022/03/16 11:30:46;;;;;;;38.42;18.88;;;;;;;;;;6334997;22;20501;-90
2022/03/16 11:33:52;;;;;;;34.80;19.05;;;;;;;;;;6335042;22;20213;-92
2022/03/16 11:40:40;;;;;;;34.65;19.15;;;;;;;;;;6335465;22;20161;-90
2022/03/16 11:43:46;;;;;;;32.03;18.23;;;;;;;;;;6301701;22;20173;-91
2022/03/16 11:46:52;;;;;;;37.15;18.85;;;;;;;;;;6303714;22;20173;-90
2022/03/16 11:50:16;;;;;;;36.38;19.83;;;;;;;;;;6305001;22;20168;-90
2022/03/16 11:53:22;;;;;;;39.25;20.23;;;;;;;;;;6302207;22;20180;-90
2022/03/16 11:56:31;;;;;;;35.63;20.27;;;;;;;;;;6300785;22;20235;-89
2022/03/16 11:59:40;;;;;;;35.22;18.45;;;;;;;;;;6301573;22;20500;-90
2022/03/16 12:02:54;;;;;;;37.33;19.73;;;;;;;;;;6301229;22;20188;-92
2022/03/16 12:06:01;;;;;;;34.00;18.25;;;;;;;;;;6306352;22;20192;-90
2022/03/16 12:09:07;;;;;;;36.42;17.45;;;;;;;;;;6304699;22;20291;-90
2022/03/16 12:15:39;;;;;;;36.78;19.40;;;;;;;;;;6302466;22;20165;-91
2022/03/16 12:18:47;;;;;;;35.45;18.50;;;;;;;;;;6303137;22;20173;-92
2022/03/16 12:21:53;;;;;;;38.90;20.35;;;;;;;;;;6303553;22;20165;-91
2022/03/16 12:25:25;;;;;;;36.58;21.08;;;;;;;;;;6301231;22;20173;-92
2022/03/16 12:32:06;;;;;;;38.38;20.05;;;;;;;;;;6289018;22;20166;-89
2022/03/16 12:35:11;;;;;;;39.70;18.52;;;;;;;;;;6304115;22;20217;-91
2022/03/16 12:38:18;;;;;;;40.00;19.38;;;;;;;;;;6302847;22;20246;-90
2022/03/16 12:44:50;;;;;;;34.58;18.80;;;;;;;;;;6305049;22;20160;-90
2022/03/16 12:48:01;;;;;;;38.83;19.58;;;;;;;;;;6305138;22;20613;-89
2022/03/16 12:51:06;;;;;;;37.28;20.08;;;;;;;;;;6304474;22;20511;-91
2022/03/16 12:54:12;;;;;;;35.33;19.05;;;;;;;;;;6305614;22;20164;-90
2022/03/16 12:57:19;;;;;;;40.28;20.55;;;;;;;;;;6305112;22;20235;-88
2022/03/16 13:00:32;;;;;;;49.08;20.55;;;;;;;;;;6304630;22;20690;-90
2022/03/16 13:03:37;;;;;;;38.85;20.15;;;;;;;;;;6304385;22;20188;-90
2022/03/16 13:06:43;;;;;;;36.15;19.30;;;;;;;;;;6302614;22;20620;-90
2022/03/16 13:09:47;;;;;;;39.17;20.63;;;;;;;;;;6304457;22;20608;-89
2022/03/16 13:13:11;;;;;;;35.88;18.05;;;;;;;;;;6304671;22;20192;-89
2022/03/16 13:16:34;;;;;;;34.30;18.95;;;;;;;;;;6301906;22;20193;-89
2022/03/16 13:19:39;;;;;;;38.28;19.80;;;;;;;;;;6302931;22;20232;-91
2022/03/16 13:22:47;;;;;;;41.55;20.75;;;;;;;;;;6305589;22;20168;-90
2022/03/16 13:26:07;;;;;;;36.33;20.25;;;;;;;;;;6306625;22;20169;-89
2022/03/16 13:29:14;;;;;;;42.10;19.90;;;;;;;;;;6306668;22;20216;-87
2022/03/16 13:32:22;;;;;;;38.92;20.27;;;;;;;;;;6306040;22;20193;-89
2022/03/16 13:35:28;;;;;;;34.60;18.85;;;;;;;;;;6306860;22;20169;-88
2022/03/16 13:38:37;;;;;;;33.88;18.55;;;;;;;;;;6307100;22;20161;-88
2022/03/16 13:42:04;;;;;;;36.40;20.48;;;;;;;;;;6306146;22;20173;-91
2022/03/16 13:45:15;;;;;;;33.25;19.45;;;;;;;;;;6323494;22;20237;-90
2022/03/16 13:48:23;;;;;;;34.72;18.95;;;;;;;;;;6324034;22;20153;-91
2022/03/16 13:51:32;;;;;;;36.10;19.65;;;;;;;;;;6305646;22;20165;-91
2022/03/16 13:54:38;;;;;;;37.60;20.25;;;;;;;;;;6306614;22;20173;-90
2022/03/16 13:57:43;;;;;;;34.25;18.55;;;;;;;;;;6303039;22;20235;-89
2022/03/16 14:00:49;;;;;;;38.28;19.63;;;;;;;;;;6302126;22;20169;-91
2022/03/16 14:04:05;;;;;;;34.28;19.33;;;;;;;;;;6302114;22;20184;-90
2022/03/16 14:07:23;;;;;;;33.75;18.08;;;;;;;;;;6303882;22;20165;-91
2022/03/16 14:10:28;;;;;;;35.78;18.85;;;;;;;;;;6304022;22;20169;-93
2022/03/16 14:13:42;;;;;;;34.63;18.88;;;;;;;;;;6303856;22;20168;-91
2022/03/16 14:16:55;;;;;;;33.65;19.25;;;;;;;;;;6301901;22;20200;-91
2022/03/16 14:20:13;;;;;;;35.28;19.00;;;;;;;;;;6302207;22;20245;-93
2022/03/16 14:23:18;;;;;;;39.20;19.50;;;;;;;;;;6302579;22;20169;-91
2022/03/16 14:26:23;;;;;;;29.10;17.60;;;;;;;;;;6304146;22;20169;-91
2022/03/16 14:29:31;;;;;;;36.28;17.00;;;;;;;;;;6304574;22;20165;-90
2022/03/16 14:32:49;;;;;;;30.95;16.63;;;;;;;;;;6307004;22;20172;-90
2022/03/16 14:35:57;;;;;;;25.58;14.88;;;;;;;;;;6304029;22;20173;-92
2022/03/16 14:39:03;;;;;;;28.75;16.02;;;;;;;;;;6305454;22;20608;-91
2022/03/16 14:42:08;;;;;;;30.27;15.75;;;;;;;;;;6306277;22;20170;-90
2022/03/16 14:45:14;;;;;;;27.23;15.68;;;;;;;;;;6307214;22;20172;-91
2022/03/16 14:48:19;;;;;;;26.88;15.73;;;;;;;;;;6305358;22;20165;-91
2022/03/16 14:51:28;;;;;;;25.73;15.18;;;;;;;;;;6303932;22;20219;-89
2022/03/16 14:54:34;;;;;;;29.25;14.70;;;;;;;;;;6304688;22;20165;-90
2022/03/16 14:57:39;;;;;;;28.15;15.43;;;;;;;;;;6304365;22;20196;-90
2022/03/16 15:00:44;;;;;;;38.35;18.13;;;;;;;;;;6303618;22;20185;-91
2022/03/16 15:03:49;;;;;;;27.52;14.90;;;;;;;;;;6306513;22;20604;-91
2022/03/16 15:06:56;;;;;;;30.63;15.85;;;;;;;;;;6305395;22;20169;-90
2022/03/16 15:10:02;;;;;;;30.58;15.90;;;;;;;;;;6306876;22;20173;-90
2022/03/16 15:13:07;;;;;;;27.67;15.48;;;;;;;;;;6305957;22;20180;-90
2022/03/16 15:16:14;;;;;;;31.38;17.90;;;;;;;;;;6304749;22;20165;-92
2022/03/16 15:19:20;;;;;;;30.85;16.75;;;;;;;;;;6301840;22;20175;-89
2022/03/16 15:22:27;;;;;;;32.28;17.70;;;;;;;;;;6304593;22;20176;-91
2022/03/16 15:25:32;;;;;;;32.67;17.38;;;;;;;;;;6300460;22;20165;-92
2022/03/16 15:28:37;;;;;;;34.42;17.55;;;;;;;;;;6303403;22;20165;-91
2022/03/16 15:31:43;;;;;;;37.05;18.20;;;;;;;;;;6306475;22;20223;-90
2022/03/16 15:34:49;;;;;;;38.78;17.67;;;;;;;;;;6308506;22;20241;-90
2022/03/16 15:37:57;;;;;;;31.45;17.42;;;;;;;;;;6323614;22;20200;-90
2022/03/16 15:44:28;;;;;;;32.63;16.33;;;;;;;;;;6308393;22;20650;-91
2022/03/16 15:47:36;;;;;;;35.80;17.70;;;;;;;;;;6308268;22;20215;-90
2022/03/16 15:50:42;;;;;;;29.73;15.88;;;;;;;;;;6307497;22;20165;-90
2022/03/16 15:53:50;;;;;;;32.17;16.50;;;;;;;;;;6322263;22;20211;-89
2022/03/16 15:56:55;;;;;;;27.73;15.73;;;;;;;;;;6306344;22;20188;-90
2022/03/16 16:00:02;;;;;;;28.58;15.65;;;;;;;;;;6306035;22;20601;-88
2022/03/16 16:03:09;;;;;;;29.40;16.42;;;;;;;;;;6324357;22;20193;-91
2022/03/16 16:06:15;;;;;;;28.77;16.67;;;;;;;;;;6306131;22;20510;-90
2022/03/16 16:09:22;;;;;;;32.25;17.42;;;;;;;;;;6305009;22;20244;-90
2022/03/16 16:12:27;;;;;;;33.03;17.58;;;;;;;;;;6326111;22;20173;-90
2022/03/16 16:15:32;;;;;;;34.45;16.83;;;;;;;;;;6306780;22;20207;-89
2022/03/16 22:37:58;;;;;;;55.60;24.70;;;;;;;;;;6310222;22;20213;-90
2022/03/16 22:41:03;;;;;;;59.17;26.00;;;;;;;;;;6301578;22;20168;-90
2022/03/16 22:44:09;;;;;;;58.27;25.50;;;;;;;;;;6303813;22;20169;-88
2022/03/16 22:47:15;;;;;;;54.67;25.43;;;;;;;;;;6303614;22;20145;-90
2022/03/16 22:50:20;;;;;;;63.87;28.57;;;;;;;;;;6320851;22;20166;-91
2022/03/16 22:53:27;;;;;;;69.00;29.43;;;;;;;;;;6302920;22;20160;-90
2022/03/16 22:56:33;;;;;;;60.43;27.70;;;;;;;;;;6304339;22;20387;-89
2022/03/16 22:59:38;;;;;;;53.13;24.53;;;;;;;;;;6303285;22;20165;-89
2022/03/16 23:02:50;;;;;;;54.00;24.33;;;;;;;;;;6303733;22;20195;-91
2022/03/16 23:05:57;;;;;;;53.97;25.40;;;;;;;;;;6302051;22;20181;-90
2022/03/16 23:09:04;;;;;;;54.93;23.53;;;;;;;;;;6305324;22;20168;-90
2022/03/16 23:12:10;;;;;;;53.70;23.30;;;;;;;;;;6301756;22;20160;-91
2022/03/16 23:15:15;;;;;;;52.93;24.17;;;;;;;;;;6302004;22;20172;-88
2022/03/16 23:18:20;;;;;;;56.50;25.60;;;;;;;;;;6302351;22;20191;-90
2022/03/16 23:21:25;;;;;;;55.37;25.27;;;;;;;;;;6301851;22;20149;-90
2022/03/16 23:24:34;;;;;;;55.13;25.90;;;;;;;;;;6301980;22;20165;-90
2022/03/16 23:27:38;;;;;;;61.10;25.93;;;;;;;;;;6301666;22;20169;-89
2022/03/16 23:30:44;;;;;;;61.37;25.83;;;;;;;;;;6300404;22;20239;-90
2022/03/16 23:33:49;;;;;;;66.67;26.93;;;;;;;;;;6301790;22;20188;-88
2022/03/16 23:36:56;;;;;;;76.87;28.17;;;;;;;;;;6288397;22;20231;-89
2022/03/16 23:40:02;;;;;;;67.77;27.77;;;;;;;;;;6288661;22;20165;-90
2022/03/16 23:43:08;;;;;;;64.83;27.13;;;;;;;;;;6288980;22;20166;-88
2022/03/16 23:46:13;;;;;;;64.20;27.67;;;;;;;;;;6288069;22;20170;-90
2022/03/16 23:49:18;;;;;;;66.50;28.37;;;;;;;;;;6288392;22;20158;-90
2022/03/16 23:52:23;;;;;;;61.50;26.30;;;;;;;;;;6288955;22;20165;-90
2022/03/16 23:55:29;;;;;;;64.63;29.13;;;;;;;;;;6290634;22;20162;-89
2022/03/16 23:58:34;;;;;;;69.37;27.07;;;;;;;;;;6289097;22;20190;-88
